sensor_id;sensor_type;location;lat;lon;timestamp;P1;durP1;ratioP1;P2;durP2;ratioP2
58842;SDS011;44614;54.356;10.100;2023-01-19T00:01:44;24.13;;;11.48;;
58842;SDS011;44614;54.356;10.100;2023-01-19T00:04:09;25.38;;;11.75;;
58842;SDS011;44614;54.356;10.100;2023-01-19T00:06:35;23.15;;;12.88;;
58842;SDS011;44614;54.356;10.100;2023-01-19T00:09:00;21.07;;;11.53;;
58842;SDS011;44614;54.356;10.100;2023-01-19T00:11:25;28.05;;;12.50;;
58842;SDS011;44614;54.356;10.100;2023-01-19T00:13:51;25.00;;;12.57;;
58842;SDS011;44614;54.356;10.100;2023-01-19T00:16:17;22.97;;;13.63;;
58842;SDS011;44614;54.356;10.100;2023-01-19T00:18:45;24.73;;;11.85;;
58842;SDS011;44614;54.356;10.100;2023-01-19T00:21:11;23.42;;;11.40;;
58842;SDS011;44614;54.356;10.100;2023-01-19T00:23:40;22.95;;;12.48;;
58842;SDS011;44614;54.356;10.100;2023-01-19T00:26:07;21.77;;;10.85;;
58842;SDS011;44614;54.356;10.100;2023-01-19T00:28:34;25.27;;;13.38;;
58842;SDS011;44614;54.356;10.100;2023-01-19T00:30:59;24.33;;;11.63;;
58842;SDS011;44614;54.356;10.100;2023-01-19T00:33:24;24.08;;;14.15;;
58842;SDS011;44614;54.356;10.100;2023-01-19T00:35:53;28.23;;;12.23;;
58842;SDS011;44614;54.356;10.100;2023-01-19T00:38:21;23.67;;;13.07;;
58842;SDS011;44614;54.356;10.100;2023-01-19T00:40:46;20.45;;;12.40;;
58842;SDS011;44614;54.356;10.100;2023-01-19T00:43:12;27.70;;;13.13;;
58842;SDS011;44614;54.356;10.100;2023-01-19T00:45:37;26.03;;;13.23;;
58842;SDS011;44614;54.356;10.100;2023-01-19T00:48:03;23.45;;;12.30;;
58842;SDS011;44614;54.356;10.100;2023-01-19T00:50:29;22.50;;;12.18;;
58842;SDS011;44614;54.356;10.100;2023-01-19T00:55:21;22.08;;;11.85;;
58842;SDS011;44614;54.356;10.100;2023-01-19T00:57:47;28.70;;;14.57;;
58842;SDS011;44614;54.356;10.100;2023-01-19T01:00:14;26.63;;;14.00;;
58842;SDS011;44614;54.356;10.100;2023-01-19T01:02:41;25.90;;;13.73;;
58842;SDS011;44614;54.356;10.100;2023-01-19T01:05:07;20.92;;;12.60;;
58842;SDS011;44614;54.356;10.100;2023-01-19T01:07:34;21.50;;;11.88;;
58842;SDS011;44614;54.356;10.100;2023-01-19T01:10:04;24.92;;;12.57;;
58842;SDS011;44614;54.356;10.100;2023-01-19T01:12:35;27.15;;;11.85;;
58842;SDS011;44614;54.356;10.100;2023-01-19T01:15:00;22.92;;;12.88;;
58842;SDS011;44614;54.356;10.100;2023-01-19T01:17:26;21.23;;;11.07;;
58842;SDS011;44614;54.356;10.100;2023-01-19T01:19:51;27.13;;;12.18;;
58842;SDS011;44614;54.356;10.100;2023-01-19T01:22:17;29.77;;;13.27;;
58842;SDS011;44614;54.356;10.100;2023-01-19T01:24:42;25.90;;;12.20;;
58842;SDS011;44614;54.356;10.100;2023-01-19T01:27:08;21.35;;;11.30;;
58842;SDS011;44614;54.356;10.100;2023-01-19T01:29:33;18.80;;;10.67;;
58842;SDS011;44614;54.356;10.100;2023-01-19T01:32:00;20.08;;;12.70;;
58842;SDS011;44614;54.356;10.100;2023-01-19T01:34:26;21.48;;;11.10;;
58842;SDS011;44614;54.356;10.100;2023-01-19T01:36:52;24.00;;;11.48;;
58842;SDS011;44614;54.356;10.100;2023-01-19T01:39:18;16.13;;;10.07;;
58842;SDS011;44614;54.356;10.100;2023-01-19T01:41:44;29.02;;;12.63;;
58842;SDS011;44614;54.356;10.100;2023-01-19T01:50:13;21.35;;;10.68;;
58842;SDS011;44614;54.356;10.100;2023-01-19T01:52:43;24.38;;;11.88;;
58842;SDS011;44614;54.356;10.100;2023-01-19T01:55:11;22.30;;;9.82;;
58842;SDS011;44614;54.356;10.100;2023-01-19T01:57:38;23.63;;;12.68;;
58842;SDS011;44614;54.356;10.100;2023-01-19T02:00:07;21.83;;;10.98;;
58842;SDS011;44614;54.356;10.100;2023-01-19T02:02:34;16.17;;;9.23;;
58842;SDS011;44614;54.356;10.100;2023-01-19T02:05:17;19.95;;;10.52;;
58842;SDS011;44614;54.356;10.100;2023-01-19T02:07:52;20.13;;;10.52;;
58842;SDS011;44614;54.356;10.100;2023-01-19T02:10:41;20.63;;;10.13;;
58842;SDS011;44614;54.356;10.100;2023-01-19T02:13:30;23.73;;;11.52;;
58842;SDS011;44614;54.356;10.100;2023-01-19T02:15:57;18.85;;;9.95;;
58842;SDS011;44614;54.356;10.100;2023-01-19T02:18:26;19.40;;;10.45;;
58842;SDS011;44614;54.356;10.100;2023-01-19T02:21:10;26.50;;;12.95;;
58842;SDS011;44614;54.356;10.100;2023-01-19T02:26:33;28.25;;;11.40;;
58842;SDS011;44614;54.356;10.100;2023-01-19T02:29:09;20.87;;;9.73;;
58842;SDS011;44614;54.356;10.100;2023-01-19T02:31:40;24.08;;;12.70;;
58842;SDS011;44614;54.356;10.100;2023-01-19T02:34:07;18.65;;;10.27;;
58842;SDS011;44614;54.356;10.100;2023-01-19T02:36:45;22.23;;;11.15;;
58842;SDS011;44614;54.356;10.100;2023-01-19T02:39:26;20.52;;;9.75;;
58842;SDS011;44614;54.356;10.100;2023-01-19T02:41:56;22.63;;;11.48;;
58842;SDS011;44614;54.356;10.100;2023-01-19T02:44:27;19.75;;;9.98;;
58842;SDS011;44614;54.356;10.100;2023-01-19T02:46:54;20.60;;;11.18;;
58842;SDS011;44614;54.356;10.100;2023-01-19T02:49:20;19.70;;;12.00;;
58842;SDS011;44614;54.356;10.100;2023-01-19T02:51:46;19.63;;;11.73;;
58842;SDS011;44614;54.356;10.100;2023-01-19T03:00:24;20.13;;;10.95;;
58842;SDS011;44614;54.356;10.100;2023-01-19T03:06:35;18.30;;;9.63;;
58842;SDS011;44614;54.356;10.100;2023-01-19T03:12:18;20.60;;;11.10;;
58842;SDS011;44614;54.356;10.100;2023-01-19T03:14:51;21.85;;;10.93;;
58842;SDS011;44614;54.356;10.100;2023-01-19T03:17:23;18.52;;;11.05;;
58842;SDS011;44614;54.356;10.100;2023-01-19T03:19:50;20.98;;;10.77;;
58842;SDS011;44614;54.356;10.100;2023-01-19T03:22:20;22.20;;;10.93;;
58842;SDS011;44614;54.356;10.100;2023-01-19T03:24:50;21.02;;;11.50;;
58842;SDS011;44614;54.356;10.100;2023-01-19T03:27:26;19.40;;;11.00;;
58842;SDS011;44614;54.356;10.100;2023-01-19T03:29:59;22.58;;;11.43;;
58842;SDS011;44614;54.356;10.100;2023-01-19T03:32:33;24.08;;;12.25;;
58842;SDS011;44614;54.356;10.100;2023-01-19T03:35:06;23.75;;;11.27;;
58842;SDS011;44614;54.356;10.100;2023-01-19T03:37:36;21.30;;;11.77;;
58842;SDS011;44614;54.356;10.100;2023-01-19T03:40:06;18.15;;;10.82;;
58842;SDS011;44614;54.356;10.100;2023-01-19T03:42:33;21.77;;;10.65;;
58842;SDS011;44614;54.356;10.100;2023-01-19T03:45:00;22.63;;;12.60;;
58842;SDS011;44614;54.356;10.100;2023-01-19T03:47:26;19.05;;;11.15;;
58842;SDS011;44614;54.356;10.100;2023-01-19T03:49:52;19.70;;;11.05;;
58842;SDS011;44614;54.356;10.100;2023-01-19T03:52:29;21.42;;;10.88;;
58842;SDS011;44614;54.356;10.100;2023-01-19T03:54:59;19.30;;;10.10;;
58842;SDS011;44614;54.356;10.100;2023-01-19T03:59:51;20.05;;;9.98;;
58842;SDS011;44614;54.356;10.100;2023-01-19T04:02:17;25.45;;;12.00;;
58842;SDS011;44614;54.356;10.100;2023-01-19T04:04:43;17.80;;;11.38;;
58842;SDS011;44614;54.356;10.100;2023-01-19T04:07:09;18.17;;;10.15;;
58842;SDS011;44614;54.356;10.100;2023-01-19T04:09:34;22.05;;;9.52;;
58842;SDS011;44614;54.356;10.100;2023-01-19T04:12:00;18.23;;;10.10;;
58842;SDS011;44614;54.356;10.100;2023-01-19T04:14:26;15.52;;;9.02;;
58842;SDS011;44614;54.356;10.100;2023-01-19T04:16:51;18.75;;;10.63;;
58842;SDS011;44614;54.356;10.100;2023-01-19T04:19:17;24.75;;;11.32;;
58842;SDS011;44614;54.356;10.100;2023-01-19T04:21:42;20.38;;;10.32;;
58842;SDS011;44614;54.356;10.100;2023-01-19T04:24:08;18.63;;;9.07;;
58842;SDS011;44614;54.356;10.100;2023-01-19T04:26:34;15.53;;;8.93;;
58842;SDS011;44614;54.356;10.100;2023-01-19T04:28:59;18.05;;;8.77;;
58842;SDS011;44614;54.356;10.100;2023-01-19T04:31:25;21.23;;;9.82;;
58842;SDS011;44614;54.356;10.100;2023-01-19T04:33:50;20.88;;;10.80;;
58842;SDS011;44614;54.356;10.100;2023-01-19T04:36:15;23.05;;;11.48;;
58842;SDS011;44614;54.356;10.100;2023-01-19T04:38:41;19.70;;;9.93;;
58842;SDS011;44614;54.356;10.100;2023-01-19T04:41:06;17.88;;;10.40;;
58842;SDS011;44614;54.356;10.100;2023-01-19T04:43:32;20.42;;;9.48;;
58842;SDS011;44614;54.356;10.100;2023-01-19T04:45:57;19.67;;;11.45;;
58842;SDS011;44614;54.356;10.100;2023-01-19T04:48:23;17.77;;;10.18;;
58842;SDS011;44614;54.356;10.100;2023-01-19T04:50:49;19.88;;;10.93;;
58842;SDS011;44614;54.356;10.100;2023-01-19T04:53:16;21.75;;;9.70;;
58842;SDS011;44614;54.356;10.100;2023-01-19T04:55:42;24.77;;;10.45;;
58842;SDS011;44614;54.356;10.100;2023-01-19T04:58:08;21.90;;;10.55;;
58842;SDS011;44614;54.356;10.100;2023-01-19T05:00:34;20.30;;;11.13;;
58842;SDS011;44614;54.356;10.100;2023-01-19T05:02:59;21.80;;;11.20;;
58842;SDS011;44614;54.356;10.100;2023-01-19T05:05:25;19.50;;;9.07;;
58842;SDS011;44614;54.356;10.100;2023-01-19T05:07:51;18.75;;;10.23;;
58842;SDS011;44614;54.356;10.100;2023-01-19T05:10:16;20.45;;;9.60;;
58842;SDS011;44614;54.356;10.100;2023-01-19T05:12:42;16.58;;;9.43;;
58842;SDS011;44614;54.356;10.100;2023-01-19T05:15:08;23.43;;;9.50;;
58842;SDS011;44614;54.356;10.100;2023-01-19T05:17:34;23.63;;;10.50;;
58842;SDS011;44614;54.356;10.100;2023-01-19T05:20:00;18.00;;;9.60;;
58842;SDS011;44614;54.356;10.100;2023-01-19T05:22:25;18.08;;;9.55;;
58842;SDS011;44614;54.356;10.100;2023-01-19T05:24:51;19.50;;;10.35;;
58842;SDS011;44614;54.356;10.100;2023-01-19T05:27:16;18.40;;;10.80;;
58842;SDS011;44614;54.356;10.100;2023-01-19T05:29:41;21.63;;;10.50;;
58842;SDS011;44614;54.356;10.100;2023-01-19T05:32:07;17.03;;;8.80;;
58842;SDS011;44614;54.356;10.100;2023-01-19T05:34:32;19.77;;;9.15;;
58842;SDS011;44614;54.356;10.100;2023-01-19T05:36:57;21.77;;;9.17;;
58842;SDS011;44614;54.356;10.100;2023-01-19T05:39:23;20.93;;;9.97;;
58842;SDS011;44614;54.356;10.100;2023-01-19T05:41:50;16.83;;;10.10;;
58842;SDS011;44614;54.356;10.100;2023-01-19T05:44:15;16.40;;;9.50;;
58842;SDS011;44614;54.356;10.100;2023-01-19T05:46:40;18.38;;;9.52;;
58842;SDS011;44614;54.356;10.100;2023-01-19T05:49:06;19.13;;;9.50;;
58842;SDS011;44614;54.356;10.100;2023-01-19T05:51:32;17.63;;;9.70;;
58842;SDS011;44614;54.356;10.100;2023-01-19T05:54:09;21.45;;;11.38;;
58842;SDS011;44614;54.356;10.100;2023-01-19T05:56:38;21.48;;;12.27;;
58842;SDS011;44614;54.356;10.100;2023-01-19T05:59:03;21.65;;;11.43;;
58842;SDS011;44614;54.356;10.100;2023-01-19T06:01:29;21.73;;;10.43;;
58842;SDS011;44614;54.356;10.100;2023-01-19T06:03:54;20.52;;;10.30;;
58842;SDS011;44614;54.356;10.100;2023-01-19T06:06:20;16.30;;;9.60;;
58842;SDS011;44614;54.356;10.100;2023-01-19T06:08:45;19.33;;;10.37;;
58842;SDS011;44614;54.356;10.100;2023-01-19T06:11:11;24.85;;;11.27;;
58842;SDS011;44614;54.356;10.100;2023-01-19T06:13:36;19.83;;;9.77;;
58842;SDS011;44614;54.356;10.100;2023-01-19T06:16:04;18.95;;;10.77;;
58842;SDS011;44614;54.356;10.100;2023-01-19T06:18:30;24.63;;;13.27;;
58842;SDS011;44614;54.356;10.100;2023-01-19T06:20:55;23.13;;;11.40;;
58842;SDS011;44614;54.356;10.100;2023-01-19T06:23:28;24.13;;;11.18;;
58842;SDS011;44614;54.356;10.100;2023-01-19T06:25:55;28.05;;;11.88;;
58842;SDS011;44614;54.356;10.100;2023-01-19T06:28:20;20.63;;;11.82;;
58842;SDS011;44614;54.356;10.100;2023-01-19T06:30:49;19.77;;;11.68;;
58842;SDS011;44614;54.356;10.100;2023-01-19T06:33:16;23.58;;;11.70;;
58842;SDS011;44614;54.356;10.100;2023-01-19T06:35:42;28.58;;;11.93;;
58842;SDS011;44614;54.356;10.100;2023-01-19T06:40:34;21.67;;;10.83;;
58842;SDS011;44614;54.356;10.100;2023-01-19T06:42:59;21.52;;;12.13;;
58842;SDS011;44614;54.356;10.100;2023-01-19T06:45:25;25.07;;;11.17;;
58842;SDS011;44614;54.356;10.100;2023-01-19T06:47:50;21.38;;;11.70;;
58842;SDS011;44614;54.356;10.100;2023-01-19T06:50:15;20.30;;;11.00;;
58842;SDS011;44614;54.356;10.100;2023-01-19T06:52:41;19.33;;;9.82;;
58842;SDS011;44614;54.356;10.100;2023-01-19T06:55:07;26.55;;;11.45;;
58842;SDS011;44614;54.356;10.100;2023-01-19T06:57:35;20.95;;;10.75;;
58842;SDS011;44614;54.356;10.100;2023-01-19T07:00:04;19.90;;;9.98;;
58842;SDS011;44614;54.356;10.100;2023-01-19T07:02:34;19.27;;;9.63;;
58842;SDS011;44614;54.356;10.100;2023-01-19T07:05:00;19.10;;;9.95;;
58842;SDS011;44614;54.356;10.100;2023-01-19T07:07:25;18.48;;;9.80;;
58842;SDS011;44614;54.356;10.100;2023-01-19T07:09:51;23.30;;;11.25;;
58842;SDS011;44614;54.356;10.100;2023-01-19T07:12:16;18.60;;;9.00;;
58842;SDS011;44614;54.356;10.100;2023-01-19T07:14:42;17.65;;;8.52;;
58842;SDS011;44614;54.356;10.100;2023-01-19T07:17:07;12.38;;;7.28;;
58842;SDS011;44614;54.356;10.100;2023-01-19T07:19:32;22.88;;;9.75;;
58842;SDS011;44614;54.356;10.100;2023-01-19T07:21:59;17.70;;;9.43;;
58842;SDS011;44614;54.356;10.100;2023-01-19T07:24:25;17.50;;;8.63;;
58842;SDS011;44614;54.356;10.100;2023-01-19T07:26:51;45.53;;;25.02;;
58842;SDS011;44614;54.356;10.100;2023-01-19T07:29:16;25.77;;;14.13;;
58842;SDS011;44614;54.356;10.100;2023-01-19T07:31:41;16.10;;;9.88;;
58842;SDS011;44614;54.356;10.100;2023-01-19T07:34:06;16.08;;;8.90;;
58842;SDS011;44614;54.356;10.100;2023-01-19T07:36:32;15.45;;;7.57;;
58842;SDS011;44614;54.356;10.100;2023-01-19T07:38:57;13.18;;;6.97;;
58842;SDS011;44614;54.356;10.100;2023-01-19T07:41:22;13.10;;;6.53;;
58842;SDS011;44614;54.356;10.100;2023-01-19T07:43:49;15.05;;;6.75;;
58842;SDS011;44614;54.356;10.100;2023-01-19T07:46:15;14.65;;;7.88;;
58842;SDS011;44614;54.356;10.100;2023-01-19T07:48:41;13.70;;;7.65;;
58842;SDS011;44614;54.356;10.100;2023-01-19T07:53:35;13.37;;;6.73;;
58842;SDS011;44614;54.356;10.100;2023-01-19T07:56:01;13.30;;;6.25;;
58842;SDS011;44614;54.356;10.100;2023-01-19T07:58:26;14.10;;;6.13;;
58842;SDS011;44614;54.356;10.100;2023-01-19T08:00:53;11.13;;;6.43;;
58842;SDS011;44614;54.356;10.100;2023-01-19T08:03:18;8.43;;;4.57;;
58842;SDS011;44614;54.356;10.100;2023-01-19T08:05:44;12.25;;;6.60;;
58842;SDS011;44614;54.356;10.100;2023-01-19T08:08:14;11.40;;;5.47;;
58842;SDS011;44614;54.356;10.100;2023-01-19T08:10:39;10.03;;;4.47;;
58842;SDS011;44614;54.356;10.100;2023-01-19T08:13:05;13.90;;;6.35;;
58842;SDS011;44614;54.356;10.100;2023-01-19T08:15:30;11.38;;;4.97;;
58842;SDS011;44614;54.356;10.100;2023-01-19T08:20:20;11.65;;;5.32;;
58842;SDS011;44614;54.356;10.100;2023-01-19T08:22:47;13.83;;;6.03;;
58842;SDS011;44614;54.356;10.100;2023-01-19T08:25:13;11.73;;;5.93;;
58842;SDS011;44614;54.356;10.100;2023-01-19T08:27:38;13.88;;;6.03;;
58842;SDS011;44614;54.356;10.100;2023-01-19T08:30:03;12.50;;;5.50;;
58842;SDS011;44614;54.356;10.100;2023-01-19T08:32:29;10.40;;;5.80;;
58842;SDS011;44614;54.356;10.100;2023-01-19T08:34:54;12.27;;;6.45;;
58842;SDS011;44614;54.356;10.100;2023-01-19T08:37:20;18.73;;;7.15;;
58842;SDS011;44614;54.356;10.100;2023-01-19T08:39:45;14.90;;;7.32;;
58842;SDS011;44614;54.356;10.100;2023-01-19T08:42:11;17.38;;;7.43;;
58842;SDS011;44614;54.356;10.100;2023-01-19T08:44:36;16.27;;;7.13;;
58842;SDS011;44614;54.356;10.100;2023-01-19T08:47:01;18.43;;;7.40;;
58842;SDS011;44614;54.356;10.100;2023-01-19T08:49:27;18.10;;;7.68;;
58842;SDS011;44614;54.356;10.100;2023-01-19T08:51:52;16.33;;;7.50;;
58842;SDS011;44614;54.356;10.100;2023-01-19T08:54:17;18.02;;;7.95;;
58842;SDS011;44614;54.356;10.100;2023-01-19T08:56:44;14.43;;;7.90;;
58842;SDS011;44614;54.356;10.100;2023-01-19T08:59:09;15.25;;;7.40;;
58842;SDS011;44614;54.356;10.100;2023-01-19T09:01:34;13.68;;;7.47;;
58842;SDS011;44614;54.356;10.100;2023-01-19T09:04:01;18.33;;;10.13;;
58842;SDS011;44614;54.356;10.100;2023-01-19T09:06:26;15.38;;;7.05;;
58842;SDS011;44614;54.356;10.100;2023-01-19T09:08:52;21.15;;;8.88;;
58842;SDS011;44614;54.356;10.100;2023-01-19T09:11:17;19.55;;;9.63;;
58842;SDS011;44614;54.356;10.100;2023-01-19T09:13:43;15.65;;;7.40;;
58842;SDS011;44614;54.356;10.100;2023-01-19T09:16:09;14.65;;;6.85;;
58842;SDS011;44614;54.356;10.100;2023-01-19T09:18:36;16.85;;;6.22;;
58842;SDS011;44614;54.356;10.100;2023-01-19T09:21:02;12.98;;;6.20;;
58842;SDS011;44614;54.356;10.100;2023-01-19T09:23:30;15.70;;;6.70;;
58842;SDS011;44614;54.356;10.100;2023-01-19T09:25:57;14.43;;;6.30;;
58842;SDS011;44614;54.356;10.100;2023-01-19T09:28:24;13.48;;;5.65;;
58842;SDS011;44614;54.356;10.100;2023-01-19T09:30:50;12.25;;;5.75;;
58842;SDS011;44614;54.356;10.100;2023-01-19T09:33:16;15.65;;;6.68;;
58842;SDS011;44614;54.356;10.100;2023-01-19T09:35:43;11.13;;;5.40;;
58842;SDS011;44614;54.356;10.100;2023-01-19T09:38:09;15.60;;;5.80;;
58842;SDS011;44614;54.356;10.100;2023-01-19T09:40:36;14.25;;;5.45;;
58842;SDS011;44614;54.356;10.100;2023-01-19T09:43:14;13.13;;;5.78;;
58842;SDS011;44614;54.356;10.100;2023-01-19T09:48:38;12.65;;;5.90;;
58842;SDS011;44614;54.356;10.100;2023-01-19T09:51:11;12.77;;;6.63;;
58842;SDS011;44614;54.356;10.100;2023-01-19T09:53:42;13.52;;;5.85;;
58842;SDS011;44614;54.356;10.100;2023-01-19T09:56:16;11.70;;;5.80;;
58842;SDS011;44614;54.356;10.100;2023-01-19T09:58:43;13.15;;;6.03;;
58842;SDS011;44614;54.356;10.100;2023-01-19T10:03:44;14.18;;;6.60;;
58842;SDS011;44614;54.356;10.100;2023-01-19T10:06:09;17.60;;;7.00;;
58842;SDS011;44614;54.356;10.100;2023-01-19T10:11:17;13.90;;;7.57;;
58842;SDS011;44614;54.356;10.100;2023-01-19T10:13:54;13.13;;;6.40;;
58842;SDS011;44614;54.356;10.100;2023-01-19T10:19:39;13.70;;;5.85;;
58842;SDS011;44614;54.356;10.100;2023-01-19T10:22:16;13.15;;;5.65;;
58842;SDS011;44614;54.356;10.100;2023-01-19T10:24:45;17.33;;;7.47;;
58842;SDS011;44614;54.356;10.100;2023-01-19T10:27:17;13.50;;;6.68;;
58842;SDS011;44614;54.356;10.100;2023-01-19T10:29:47;16.30;;;8.20;;
58842;SDS011;44614;54.356;10.100;2023-01-19T10:34:44;16.08;;;8.20;;
58842;SDS011;44614;54.356;10.100;2023-01-19T10:39:41;20.25;;;8.40;;
58842;SDS011;44614;54.356;10.100;2023-01-19T10:42:07;16.83;;;7.97;;
58842;SDS011;44614;54.356;10.100;2023-01-19T10:44:36;13.40;;;7.10;;
58842;SDS011;44614;54.356;10.100;2023-01-19T10:47:01;11.65;;;5.80;;
58842;SDS011;44614;54.356;10.100;2023-01-19T10:49:39;14.23;;;7.45;;
58842;SDS011;44614;54.356;10.100;2023-01-19T10:54:42;14.18;;;7.15;;
58842;SDS011;44614;54.356;10.100;2023-01-19T10:57:08;16.35;;;7.07;;
58842;SDS011;44614;54.356;10.100;2023-01-19T10:59:37;15.50;;;6.32;;
58842;SDS011;44614;54.356;10.100;2023-01-19T11:02:14;17.58;;;7.32;;
58842;SDS011;44614;54.356;10.100;2023-01-19T11:04:45;15.95;;;6.70;;
58842;SDS011;44614;54.356;10.100;2023-01-19T11:09:46;12.23;;;6.18;;
58842;SDS011;44614;54.356;10.100;2023-01-19T11:12:15;12.68;;;5.72;;
58842;SDS011;44614;54.356;10.100;2023-01-19T11:14:44;16.08;;;6.78;;
58842;SDS011;44614;54.356;10.100;2023-01-19T11:17:17;12.80;;;5.50;;
58842;SDS011;44614;54.356;10.100;2023-01-19T11:19:57;15.18;;;6.15;;
58842;SDS011;44614;54.356;10.100;2023-01-19T11:22:26;13.80;;;5.90;;
58842;SDS011;44614;54.356;10.100;2023-01-19T11:25:01;14.10;;;6.07;;
58842;SDS011;44614;54.356;10.100;2023-01-19T11:27:28;12.30;;;5.63;;
58842;SDS011;44614;54.356;10.100;2023-01-19T11:30:06;11.55;;;5.07;;
58842;SDS011;44614;54.356;10.100;2023-01-19T11:32:41;15.02;;;5.32;;
58842;SDS011;44614;54.356;10.100;2023-01-19T11:40:36;11.27;;;5.93;;
58842;SDS011;44614;54.356;10.100;2023-01-19T11:43:02;13.00;;;5.80;;
58842;SDS011;44614;54.356;10.100;2023-01-19T11:45:27;11.60;;;5.25;;
58842;SDS011;44614;54.356;10.100;2023-01-19T11:47:53;11.77;;;5.35;;
58842;SDS011;44614;54.356;10.100;2023-01-19T11:52:50;13.32;;;4.53;;
58842;SDS011;44614;54.356;10.100;2023-01-19T11:58:14;11.73;;;5.30;;
58842;SDS011;44614;54.356;10.100;2023-01-19T12:03:33;10.30;;;4.93;;
58842;SDS011;44614;54.356;10.100;2023-01-19T12:06:11;16.58;;;6.32;;
58842;SDS011;44614;54.356;10.100;2023-01-19T12:11:11;9.15;;;4.97;;
58842;SDS011;44614;54.356;10.100;2023-01-19T12:13:42;12.23;;;5.07;;
58842;SDS011;44614;54.356;10.100;2023-01-19T12:16:16;17.60;;;6.60;;
58842;SDS011;44614;54.356;10.100;2023-01-19T12:18:51;10.63;;;6.32;;
58842;SDS011;44614;54.356;10.100;2023-01-19T12:21:20;12.52;;;6.07;;
58842;SDS011;44614;54.356;10.100;2023-01-19T12:28:54;15.98;;;5.60;;
58842;SDS011;44614;54.356;10.100;2023-01-19T12:31:25;14.15;;;6.22;;
58842;SDS011;44614;54.356;10.100;2023-01-19T12:33:51;13.75;;;5.63;;
58842;SDS011;44614;54.356;10.100;2023-01-19T12:39:01;11.77;;;5.45;;
58842;SDS011;44614;54.356;10.100;2023-01-19T12:41:35;13.43;;;5.72;;
58842;SDS011;44614;54.356;10.100;2023-01-19T12:46:34;13.48;;;5.85;;
58842;SDS011;44614;54.356;10.100;2023-01-19T12:49:03;12.77;;;5.65;;
58842;SDS011;44614;54.356;10.100;2023-01-19T12:51:30;11.60;;;5.68;;
58842;SDS011;44614;54.356;10.100;2023-01-19T12:53:56;11.80;;;6.07;;
58842;SDS011;44614;54.356;10.100;2023-01-19T12:56:30;12.50;;;5.70;;
58842;SDS011;44614;54.356;10.100;2023-01-19T12:58:58;13.13;;;5.60;;
58842;SDS011;44614;54.356;10.100;2023-01-19T13:01:24;13.50;;;5.70;;
58842;SDS011;44614;54.356;10.100;2023-01-19T13:04:17;15.83;;;5.70;;
58842;SDS011;44614;54.356;10.100;2023-01-19T13:09:36;14.30;;;6.35;;
58842;SDS011;44614;54.356;10.100;2023-01-19T13:14:36;16.50;;;6.32;;
58842;SDS011;44614;54.356;10.100;2023-01-19T13:17:03;12.32;;;5.32;;
58842;SDS011;44614;54.356;10.100;2023-01-19T13:19:41;15.35;;;6.70;;
58842;SDS011;44614;54.356;10.100;2023-01-19T13:28:00;15.13;;;6.50;;
58842;SDS011;44614;54.356;10.100;2023-01-19T13:30:27;11.68;;;4.97;;
58842;SDS011;44614;54.356;10.100;2023-01-19T13:33:00;13.25;;;5.97;;
58842;SDS011;44614;54.356;10.100;2023-01-19T13:35:30;17.27;;;5.97;;
58842;SDS011;44614;54.356;10.100;2023-01-19T13:37:55;11.20;;;5.10;;
58842;SDS011;44614;54.356;10.100;2023-01-19T13:40:23;11.17;;;5.27;;
58842;SDS011;44614;54.356;10.100;2023-01-19T13:42:51;18.38;;;5.68;;
58842;SDS011;44614;54.356;10.100;2023-01-19T13:48:03;14.55;;;5.30;;
58842;SDS011;44614;54.356;10.100;2023-01-19T13:50:31;9.43;;;4.40;;
58842;SDS011;44614;54.356;10.100;2023-01-19T13:52:58;14.65;;;4.80;;
58842;SDS011;44614;54.356;10.100;2023-01-19T13:55:25;9.73;;;4.68;;
58842;SDS011;44614;54.356;10.100;2023-01-19T13:57:53;8.30;;;3.60;;
58842;SDS011;44614;54.356;10.100;2023-01-19T14:00:25;8.35;;;3.72;;
58842;SDS011;44614;54.356;10.100;2023-01-19T14:02:54;8.23;;;4.03;;
58842;SDS011;44614;54.356;10.100;2023-01-19T14:05:31;6.53;;;3.65;;
58842;SDS011;44614;54.356;10.100;2023-01-19T14:13:10;12.73;;;4.18;;
58842;SDS011;44614;54.356;10.100;2023-01-19T14:15:36;7.03;;;3.15;;
58842;SDS011;44614;54.356;10.100;2023-01-19T14:20:40;8.68;;;4.32;;
58842;SDS011;44614;54.356;10.100;2023-01-19T14:23:27;11.43;;;4.45;;
58842;SDS011;44614;54.356;10.100;2023-01-19T14:26:01;7.78;;;2.60;;
58842;SDS011;44614;54.356;10.100;2023-01-19T14:28:33;9.65;;;3.13;;
58842;SDS011;44614;54.356;10.100;2023-01-19T14:31:24;10.32;;;3.95;;
58842;SDS011;44614;54.356;10.100;2023-01-19T14:33:52;7.65;;;3.05;;
58842;SDS011;44614;54.356;10.100;2023-01-19T14:36:35;8.48;;;3.63;;
58842;SDS011;44614;54.356;10.100;2023-01-19T14:39:03;8.88;;;3.38;;
58842;SDS011;44614;54.356;10.100;2023-01-19T14:44:33;12.10;;;3.33;;
58842;SDS011;44614;54.356;10.100;2023-01-19T14:47:01;6.65;;;3.08;;
58842;SDS011;44614;54.356;10.100;2023-01-19T14:49:29;7.88;;;4.35;;
58842;SDS011;44614;54.356;10.100;2023-01-19T14:51:58;9.00;;;3.85;;
58842;SDS011;44614;54.356;10.100;2023-01-19T14:54:28;8.75;;;3.60;;
58842;SDS011;44614;54.356;10.100;2023-01-19T14:56:58;7.07;;;3.85;;
58842;SDS011;44614;54.356;10.100;2023-01-19T14:59:23;12.95;;;4.78;;
58842;SDS011;44614;54.356;10.100;2023-01-19T15:01:49;9.50;;;3.70;;
58842;SDS011;44614;54.356;10.100;2023-01-19T15:04:14;10.73;;;3.75;;
58842;SDS011;44614;54.356;10.100;2023-01-19T15:06:39;14.57;;;4.93;;
58842;SDS011;44614;54.356;10.100;2023-01-19T15:09:09;8.45;;;4.20;;
58842;SDS011;44614;54.356;10.100;2023-01-19T15:11:37;10.20;;;3.67;;
58842;SDS011;44614;54.356;10.100;2023-01-19T15:14:02;8.63;;;3.17;;
58842;SDS011;44614;54.356;10.100;2023-01-19T15:16:28;6.68;;;3.42;;
58842;SDS011;44614;54.356;10.100;2023-01-19T15:18:55;7.70;;;3.00;;
58842;SDS011;44614;54.356;10.100;2023-01-19T15:21:21;9.45;;;3.65;;
58842;SDS011;44614;54.356;10.100;2023-01-19T15:23:53;5.90;;;2.10;;
58842;SDS011;44614;54.356;10.100;2023-01-19T15:26:20;6.53;;;2.72;;
58842;SDS011;44614;54.356;10.100;2023-01-19T15:28:47;4.63;;;2.58;;
58842;SDS011;44614;54.356;10.100;2023-01-19T15:31:17;6.97;;;2.50;;
58842;SDS011;44614;54.356;10.100;2023-01-19T15:33:45;4.75;;;2.08;;
58842;SDS011;44614;54.356;10.100;2023-01-19T15:36:11;6.43;;;2.15;;
58842;SDS011;44614;54.356;10.100;2023-01-19T15:38:41;3.70;;;1.05;;
58842;SDS011;44614;54.356;10.100;2023-01-19T15:41:13;2.00;;;1.25;;
58842;SDS011;44614;54.356;10.100;2023-01-19T15:43:42;4.30;;;1.40;;
58842;SDS011;44614;54.356;10.100;2023-01-19T15:46:08;3.63;;;2.05;;
58842;SDS011;44614;54.356;10.100;2023-01-19T15:48:39;4.35;;;1.42;;
58842;SDS011;44614;54.356;10.100;2023-01-19T15:51:04;8.20;;;1.70;;
58842;SDS011;44614;54.356;10.100;2023-01-19T15:53:30;3.58;;;0.93;;
58842;SDS011;44614;54.356;10.100;2023-01-19T15:55:55;4.67;;;0.90;;
58842;SDS011;44614;54.356;10.100;2023-01-19T15:58:21;4.30;;;1.08;;
58842;SDS011;44614;54.356;10.100;2023-01-19T16:00:54;4.68;;;1.15;;
58842;SDS011;44614;54.356;10.100;2023-01-19T16:03:23;5.30;;;1.60;;
58842;SDS011;44614;54.356;10.100;2023-01-19T16:05:49;8.98;;;1.85;;
58842;SDS011;44614;54.356;10.100;2023-01-19T16:08:15;4.95;;;2.05;;
58842;SDS011;44614;54.356;10.100;2023-01-19T16:10:41;6.60;;;1.95;;